Pagrindinis puslapis
METAR-TAF:

METAR-TAF

Oro uostai :

Mersa Matruhas, Egiptas

platuma: 31-20N, ilguma: 027-13E, Aukštis: 25 m

Dabartinis oras

Ataskaita buvo paskelbta 1 valandą ir 5 minutes, ne 06:00 UTC
Vėjas 12 kt iš Vakarų/Šiaurės Vakarų
Temperatūra 23°C
Drėgmė 65%
Slėgis 1016 hPa
Matomumas 10 km arba daugiau
nėra debesų žemiau 1500 m ir nėra kamuolinių lietaus debesų

METAR: HEMM 240600Z 29012KT CAVOK 23/16 Q1016 NOSIG

Laikas: 09:05 (07:05 UTC)

Prognozė

Ataskaita buvo paskelbta 2 valandos ir 5 minutes, ne 05:00 UTC
Prognozė galioja nuo 24 metu 06 UTC su 25 metu 12 UTC
Vėjas 10 kt iš Vakarų/Šiaurės Vakarų
Matomumas 10 km arba daugiau
Išsisklaidę debesys ne aukštis 2000 ft

TAF: HEMM 240500Z 2406/2512 29010KT 9999 SCT020

Orai ataskaitas ir orų prognozės (METAR, TAF).

turimą stotys yra geltonos ir raudonos taškus žemėlapyje.

Perkelti pele per norėdami pamatyti stoties vardą.

Tada spustelėkite, norėdami matyti oro stebėjimo ir prognozės.

Norėdami pakeisti žemėlapį: spustelėkite ant žalios mygtukų su juodo kryžiaus žemyn,; žalią mygtuką su brūkšneliu, jei norite nutolinti; arba žalių rodyklių gretimoms žemėlapius.


METAR-TAF: